Time;durP1;ratioP1;P1;durP2;ratioP2;P2;SDS_P1;SDS_P2;PMS_P1;PMS_P2;Temp;Humidity;BMP_temperature;BMP_pressure;BME280_temperature;BME280_humidity;BME280_pressure;Samples;Min_cycle;Max_cycle;Signal;HPM_P1;HPM_P2
2023/09/07 04:02:04;;;;;;;4.60;3.30;;;16.00;99.90;;;;;;5148850;23;20571;-72
2023/09/07 04:04:30;;;;;;;4.47;4.27;;;16.00;99.90;;;;;;4932331;29;20980;-73
2023/09/07 04:06:57;;;;;;;9.00;3.97;;;16.00;99.90;;;;;;4926913;29;20464;-72
2023/09/07 04:09:24;;;;;;;4.33;4.03;;;16.00;99.90;;;;;;4927589;29;21233;-73
2023/09/07 04:11:50;;;;;;;4.10;3.80;;;15.90;99.90;;;;;;4932349;29;20858;-73
2023/09/07 04:14:17;;;;;;;3.30;3.10;;;15.90;99.90;;;;;;4932494;29;20489;-73
2023/09/07 04:16:44;;;;;;;2.57;2.47;;;15.90;99.90;;;;;;4931055;29;20473;-73
2023/09/07 04:19:12;;;;;;;3.60;3.40;;;15.90;99.90;;;;;;4931809;29;20469;-73
2023/09/07 04:21:39;;;;;;;3.77;3.57;;;15.90;99.90;;;;;;4928720;29;20479;-73
2023/09/07 04:24:06;;;;;;;3.63;3.43;;;15.80;99.90;;;;;;4925115;29;20496;-73
2023/09/07 04:26:34;;;;;;;3.90;3.17;;;15.80;99.90;;;;;;4933868;29;20801;-73
2023/09/07 04:29:01;;;;;;;4.50;4.20;;;15.80;99.90;;;;;;4927983;29;20478;-72
2023/09/07 04:31:27;;;;;;;3.40;3.30;;;15.80;99.90;;;;;;4933430;28;20497;-72
2023/09/07 04:33:54;;;;;;;4.53;4.23;;;15.80;99.90;;;;;;4939237;29;20456;-72
2023/09/07 04:36:22;;;;;;;4.63;4.23;;;15.80;99.90;;;;;;4922034;29;20487;-73
2023/09/07 04:38:50;;;;;;;4.57;4.27;;;15.80;99.90;;;;;;4920623;29;20478;-73
2023/09/07 04:41:16;;;;;;;3.63;3.43;;;15.80;99.90;;;;;;4931156;29;20489;-73
2023/09/07 04:43:43;;;;;;;4.33;4.03;;;15.80;99.90;;;;;;4935890;29;20471;-73
2023/09/07 04:46:10;;;;;;;3.37;3.27;;;15.80;99.90;;;;;;4931684;29;20463;-73
2023/09/07 04:48:37;;;;;;;4.00;3.70;;;15.80;99.90;;;;;;4933151;29;20462;-73
2023/09/07 04:51:06;;;;;;;4.00;3.80;;;15.80;99.90;;;;;;4926202;29;20517;-73
2023/09/07 04:53:35;;;;;;;6.20;4.07;;;15.80;99.90;;;;;;4930265;29;20846;-73
2023/09/07 04:56:02;;;;;;;4.00;3.60;;;15.80;99.90;;;;;;4933603;29;20493;-72
2023/09/07 04:58:29;;;;;;;3.73;3.43;;;15.80;99.90;;;;;;4931523;29;20465;-72
2023/09/07 05:01:01;;;;;;;3.50;3.30;;;15.80;99.90;;;;;;4931614;29;20503;-72
2023/09/07 05:03:28;;;;;;;4.60;4.30;;;15.80;99.90;;;;;;4923415;29;20469;-72
2023/09/07 05:05:56;;;;;;;4.33;4.03;;;15.90;99.90;;;;;;4932228;29;22198;-72
2023/09/07 05:08:24;;;;;;;3.93;3.73;;;15.90;99.90;;;;;;4931892;29;20842;-72
2023/09/07 05:10:56;;;;;;;4.33;3.93;;;15.90;99.90;;;;;;4936425;29;20572;-72
2023/09/07 05:13:23;;;;;;;4.07;3.93;;;15.90;99.90;;;;;;4930192;29;20462;-72
2023/09/07 05:15:50;;;;;;;4.87;4.53;;;16.00;99.90;;;;;;4931572;29;20988;-72
2023/09/07 05:18:18;;;;;;;4.80;4.50;;;16.00;99.90;;;;;;4931589;29;20470;-72
2023/09/07 05:20:45;;;;;;;4.43;4.13;;;16.10;99.90;;;;;;4933907;29;20490;-72
2023/09/07 05:23:15;;;;;;;4.50;4.07;;;16.10;99.90;;;;;;4936320;29;20475;-72
2023/09/07 05:25:45;;;;;;;5.13;4.73;;;16.10;99.90;;;;;;4932435;29;20465;-72
2023/09/07 05:28:14;;;;;;;5.53;5.03;;;16.20;99.90;;;;;;4923580;29;20890;-72
2023/09/07 05:30:41;;;;;;;4.17;3.87;;;16.20;99.90;;;;;;4934577;29;20238;-72
2023/09/07 05:33:09;;;;;;;4.67;4.27;;;16.20;99.90;;;;;;4936741;29;20476;-72
2023/09/07 05:35:36;;;;;;;5.30;4.40;;;16.30;99.90;;;;;;4936840;29;20487;-72
2023/09/07 05:38:03;;;;;;;4.57;4.17;;;16.30;99.90;;;;;;4933009;29;20472;-72
2023/09/07 05:40:30;;;;;;;5.17;4.87;;;16.40;99.90;;;;;;4936057;29;20491;-72
2023/09/07 05:42:57;;;;;;;5.40;5.00;;;16.40;99.90;;;;;;4935985;29;20993;-72
2023/09/07 05:45:25;;;;;;;4.13;4.00;;;16.40;99.90;;;;;;4936466;29;20480;-71
2023/09/07 05:47:52;;;;;;;4.80;4.50;;;16.50;99.90;;;;;;4937007;29;20466;-72
2023/09/07 05:50:18;;;;;;;4.67;4.30;;;16.50;99.90;;;;;;4930800;29;20473;-72
2023/09/07 05:52:45;;;;;;;4.43;4.13;;;16.60;99.90;;;;;;4936522;29;20465;-72
2023/09/07 05:55:12;;;;;;;5.33;5.03;;;16.60;99.90;;;;;;4936769;29;20572;-72
2023/09/07 05:57:39;;;;;;;7.43;4.30;;;16.60;99.90;;;;;;4935643;29;21000;-72
2023/09/07 06:00:07;;;;;;;5.17;4.70;;;16.70;99.90;;;;;;4934747;29;20477;-72
2023/09/07 06:02:35;;;;;;;4.63;4.23;;;16.70;99.90;;;;;;4933366;29;20473;-72
2023/09/07 06:05:02;;;;;;;4.10;3.90;;;16.70;99.90;;;;;;4928714;29;20950;-72
2023/09/07 06:07:29;;;;;;;5.90;5.23;;;16.80;99.90;;;;;;4925429;29;20573;-71
2023/09/07 06:09:58;;;;;;;3.93;3.73;;;16.80;99.90;;;;;;4934134;29;20477;-71
2023/09/07 06:12:25;;;;;;;4.93;4.63;;;16.90;99.90;;;;;;4927278;29;20577;-70
2023/09/07 06:14:52;;;;;;;3.97;3.77;;;17.00;99.90;;;;;;4936265;29;20493;-70
2023/09/07 06:17:18;;;;;;;4.07;3.87;;;17.00;99.90;;;;;;4936862;29;20473;-70
2023/09/07 06:19:47;;;;;;;5.37;4.97;;;17.10;99.90;;;;;;4935281;29;20477;-70
2023/09/07 06:22:14;;;;;;;4.90;4.60;;;17.20;99.90;;;;;;4925366;29;21012;-70
2023/09/07 06:24:41;;;;;;;4.30;4.00;;;17.20;99.90;;;;;;4932345;29;20482;-69
2023/09/07 06:27:07;;;;;;;3.53;3.40;;;17.30;99.90;;;;;;4935128;29;20482;-72
2023/09/07 06:29:34;;;;;;;4.47;4.17;;;17.40;99.90;;;;;;4932668;29;20525;-72
2023/09/07 06:32:01;;;;;;;5.00;4.60;;;17.50;99.90;;;;;;4933839;29;20492;-72
2023/09/07 06:34:27;;;;;;;5.27;4.10;;;17.60;99.90;;;;;;4931355;29;20489;-71
2023/09/07 06:36:55;;;;;;;4.27;3.93;;;17.70;99.90;;;;;;4933631;29;20492;-72
2023/09/07 06:39:22;;;;;;;3.70;3.50;;;17.70;99.90;;;;;;4939631;29;20519;-71
2023/09/07 06:41:49;;;;;;;3.70;3.40;;;17.80;99.90;;;;;;4930009;29;20493;-70
2023/09/07 06:44:16;;;;;;;3.40;3.23;;;17.90;99.90;;;;;;4932397;29;20473;-71
2023/09/07 06:46:42;;;;;;;3.67;3.43;;;18.00;99.90;;;;;;4927710;29;20504;-75
2023/09/07 06:49:09;;;;;;;4.20;4.00;;;18.00;99.90;;;;;;4934149;29;20964;-71
2023/09/07 06:51:36;;;;;;;4.10;3.70;;;18.20;99.90;;;;;;4929816;29;20493;-71
2023/09/07 06:54:04;;;;;;;3.47;3.37;;;18.20;99.90;;;;;;4935443;29;20510;-71
2023/09/07 06:56:33;;;;;;;4.57;4.20;;;18.40;99.90;;;;;;4936977;29;20927;-71
2023/09/07 06:59:00;;;;;;;3.90;3.70;;;18.40;99.90;;;;;;4935158;29;20495;-71
2023/09/07 07:01:26;;;;;;;4.43;4.10;;;18.50;99.90;;;;;;4931235;29;20508;-71
2023/09/07 07:03:54;;;;;;;3.80;3.70;;;18.60;99.90;;;;;;4932833;29;20477;-71
2023/09/07 07:06:20;;;;;;;3.80;3.60;;;18.70;99.90;;;;;;4927570;29;20552;-71
2023/09/07 07:08:47;;;;;;;3.10;3.00;;;18.80;99.90;;;;;;4935258;29;20471;-71
2023/09/07 07:11:15;;;;;;;3.60;3.40;;;18.90;99.90;;;;;;4933399;29;20493;-68
2023/09/07 07:13:42;;;;;;;3.80;3.70;;;19.00;99.90;;;;;;4919294;29;20829;-69
2023/09/07 07:16:09;;;;;;;3.60;3.43;;;19.10;99.90;;;;;;4918986;29;20491;-69
2023/09/07 07:18:35;;;;;;;3.20;3.10;;;19.20;99.90;;;;;;4927666;29;20463;-68
2023/09/07 07:21:02;;;;;;;3.20;3.00;;;19.30;99.90;;;;;;4935228;29;20481;-68
2023/09/07 07:23:29;;;;;;;3.90;3.70;;;19.40;99.90;;;;;;4935014;29;20466;-68
2023/09/07 07:25:56;;;;;;;3.60;3.50;;;19.50;99.90;;;;;;4920006;29;20470;-68
2023/09/07 07:28:24;;;;;;;4.60;4.20;;;19.50;99.90;;;;;;4924972;29;20919;-68
2023/09/07 07:30:52;;;;;;;3.57;3.47;;;19.60;99.90;;;;;;4935412;29;20487;-69
2023/09/07 07:33:18;;;;;;;4.07;3.87;;;19.70;99.90;;;;;;4934642;29;20470;-67
2023/09/07 07:35:45;;;;;;;3.60;3.50;;;19.70;99.90;;;;;;4920736;29;20514;-69
2023/09/07 07:38:13;;;;;;;3.53;3.40;;;19.80;99.90;;;;;;4924074;29;20472;-68
2023/09/07 07:40:40;;;;;;;3.77;3.60;;;19.90;99.90;;;;;;4930418;29;20536;-67
2023/09/07 07:43:07;;;;;;;3.13;3.03;;;20.00;99.90;;;;;;4928532;29;20969;-68
2023/09/07 07:45:38;;;;;;;3.30;3.20;;;20.10;99.90;;;;;;4925256;29;20839;-67
2023/09/07 07:48:07;;;;;;;3.43;3.23;;;20.20;99.90;;;;;;4915416;29;20467;-67
2023/09/07 07:50:38;;;;;;;3.50;3.40;;;20.30;99.90;;;;;;4926858;29;20576;-68
2023/09/07 07:53:06;;;;;;;3.47;3.37;;;20.40;99.90;;;;;;4933661;29;20472;-67
2023/09/07 07:55:38;;;;;;;3.50;3.40;;;20.50;99.90;;;;;;4934431;29;20492;-68
2023/09/07 07:58:05;;;;;;;3.90;3.70;;;20.50;99.90;;;;;;4934357;29;20472;-71
2023/09/07 08:00:32;;;;;;;3.90;3.60;;;20.60;99.90;;;;;;4933110;29;20511;-71
2023/09/07 08:03:00;;;;;;;3.00;2.90;;;20.70;99.90;;;;;;4934494;29;20466;-71
2023/09/07 08:05:27;;;;;;;4.07;3.90;;;20.70;99.90;;;;;;4934170;29;20618;-70
2023/09/07 08:07:53;;;;;;;3.50;3.30;;;20.80;99.90;;;;;;4934366;29;20465;-70
2023/09/07 08:10:20;;;;;;;2.97;2.87;;;20.90;99.90;;;;;;4933959;29;20468;-71
2023/09/07 08:12:47;;;;;;;3.80;3.60;;;21.00;99.90;;;;;;4934469;29;20466;-71
2023/09/07 08:15:14;;;;;;;3.23;3.03;;;21.10;99.90;;;;;;4933621;29;20496;-70
2023/09/07 08:17:41;;;;;;;4.37;3.97;;;21.20;99.90;;;;;;4934313;29;20808;-70
2023/09/07 08:20:11;;;;;;;6.00;4.27;;;21.30;99.90;;;;;;4934128;29;20473;-70
2023/09/07 08:22:40;;;;;;;4.33;4.13;;;21.40;99.90;;;;;;4917212;29;20474;-70
2023/09/07 08:25:08;;;;;;;4.03;3.83;;;21.40;99.90;;;;;;4923017;29;20479;-70
2023/09/07 08:27:34;;;;;;;3.60;3.50;;;21.50;99.90;;;;;;4925468;29;20464;-71
2023/09/07 08:30:01;;;;;;;4.20;4.00;;;21.60;99.90;;;;;;4933752;29;20891;-70
2023/09/07 08:32:28;;;;;;;3.10;3.00;;;21.80;99.90;;;;;;4933850;29;20485;-71
2023/09/07 08:34:57;;;;;;;3.40;3.30;;;21.90;99.90;;;;;;4933688;29;20469;-71
2023/09/07 08:37:25;;;;;;;3.50;3.40;;;22.00;99.90;;;;;;4934080;29;20976;-70
2023/09/07 08:39:52;;;;;;;3.57;3.37;;;22.10;99.90;;;;;;4933530;29;20469;-70
2023/09/07 08:42:19;;;;;;;3.10;3.07;;;22.20;99.90;;;;;;4933029;29;20511;-71
2023/09/07 08:44:47;;;;;;;3.27;3.17;;;22.30;99.90;;;;;;4933716;29;20462;-71
2023/09/07 08:47:15;;;;;;;3.43;3.33;;;22.40;99.90;;;;;;4933737;29;20816;-71
2023/09/07 08:49:44;;;;;;;4.27;3.87;;;22.50;99.90;;;;;;4933340;29;20466;-71
2023/09/07 08:52:11;;;;;;;3.10;2.90;;;22.60;99.90;;;;;;4930884;29;20500;-71
2023/09/07 08:54:40;;;;;;;3.53;3.43;;;22.70;99.90;;;;;;4925597;29;20486;-71
2023/09/07 08:57:07;;;;;;;4.37;4.17;;;22.80;99.90;;;;;;4927319;29;20496;-72
2023/09/07 08:59:33;;;;;;;3.90;3.67;;;22.80;99.90;;;;;;4922531;29;20470;-72
2023/09/07 09:02:00;;;;;;;2.97;2.87;;;22.90;99.90;;;;;;4925310;29;21007;-72
2023/09/07 09:04:28;;;;;;;3.30;3.20;;;23.00;99.90;;;;;;4924451;29;20463;-71
2023/09/07 09:06:55;;;;;;;3.10;3.00;;;23.20;99.90;;;;;;4927078;29;21204;-70
2023/09/07 09:09:25;;;;;;;3.10;3.00;;;23.30;99.90;;;;;;4922816;29;20482;-71
2023/09/07 09:11:54;;;;;;;3.50;3.30;;;23.40;99.90;;;;;;4922073;29;20495;-70
2023/09/07 09:14:22;;;;;;;4.27;3.97;;;23.50;99.90;;;;;;4921223;29;20853;-69
2023/09/07 09:16:52;;;;;;;3.20;3.10;;;23.50;99.90;;;;;;4927418;29;20528;-71
2023/09/07 09:19:19;;;;;;;3.23;3.13;;;23.60;99.90;;;;;;4928472;29;20475;-70
2023/09/07 09:21:46;;;;;;;3.40;3.20;;;23.80;99.90;;;;;;4933278;29;20599;-70
2023/09/07 09:24:14;;;;;;;3.50;3.40;;;24.00;99.90;;;;;;4932910;29;21023;-70
2023/09/07 09:26:41;;;;;;;4.03;3.73;;;24.00;99.90;;;;;;4931682;29;20984;-70
2023/09/07 09:29:11;;;;;;;2.77;2.77;;;24.10;99.90;;;;;;4931867;29;20494;-70
2023/09/07 09:31:37;;;;;;;3.80;3.60;;;24.20;99.90;;;;;;4925473;29;20522;-70
2023/09/07 09:34:05;;;;;;;2.90;2.80;;;24.30;99.90;;;;;;4932916;29;20470;-71
2023/09/07 09:36:34;;;;;;;2.50;2.40;;;24.30;99.90;;;;;;4931766;29;20992;-70
2023/09/07 09:39:01;;;;;;;2.90;2.80;;;24.40;99.90;;;;;;4930585;29;20966;-71
2023/09/07 09:41:31;;;;;;;3.27;3.17;;;24.50;99.90;;;;;;4931133;29;20581;-71
2023/09/07 09:43:59;;;;;;;4.13;3.93;;;24.60;99.90;;;;;;4932937;29;20479;-71
2023/09/07 09:46:28;;;;;;;2.90;2.90;;;24.60;99.90;;;;;;4927334;29;20471;-71
2023/09/07 09:48:56;;;;;;;4.03;3.83;;;24.70;99.90;;;;;;4935481;29;20548;-71
2023/09/07 09:51:24;;;;;;;3.33;3.13;;;24.90;99.90;;;;;;4936628;29;20227;-71
2023/09/07 09:53:51;;;;;;;2.90;2.70;;;24.90;99.90;;;;;;4935388;29;20478;-71
2023/09/07 09:56:20;;;;;;;3.20;3.10;;;25.00;99.90;;;;;;4934719;29;20487;-71
2023/09/07 09:58:47;;;;;;;3.63;3.33;;;25.20;99.90;;;;;;4921793;29;20467;-71
2023/09/07 10:01:15;;;;;;;2.33;2.23;;;25.30;99.90;;;;;;4936703;29;20495;-71
2023/09/07 10:03:48;;;;;;;2.50;2.47;;;25.40;99.90;;;;;;4936597;29;20467;-71
2023/09/07 10:06:20;;;;;;;2.20;2.20;;;25.50;99.90;;;;;;4931388;29;20462;-71
2023/09/07 10:08:54;;;;;;;3.03;2.83;;;25.50;99.90;;;;;;4921320;29;20468;-71
2023/09/07 10:11:28;;;;;;;2.93;2.80;;;25.50;99.90;;;;;;4936541;29;20894;-71
2023/09/07 10:13:58;;;;;;;2.60;2.50;;;25.60;99.90;;;;;;4936393;29;20996;-71
2023/09/07 10:16:26;;;;;;;2.70;2.57;;;25.60;99.90;;;;;;4932244;29;20525;-71
2023/09/07 10:18:54;;;;;;;2.60;2.60;;;25.60;99.90;;;;;;4917139;29;20466;-71
2023/09/07 10:21:25;;;;;;;2.67;2.67;;;25.60;99.90;;;;;;4954604;23;20520;-70
2023/09/07 10:23:52;;;;;;;2.20;2.10;;;25.60;99.90;;;;;;4917215;29;20892;-70
2023/09/07 10:26:21;;;;;;;2.67;2.67;;;25.70;99.90;;;;;;4900646;29;20465;-70
2023/09/07 10:28:59;;;;;;;2.43;2.33;;;25.70;99.90;;;;;;4903085;29;20478;-70
2023/09/07 10:31:26;;;;;;;2.20;2.20;;;25.70;99.90;;;;;;4895210;29;20494;-71
2023/09/07 10:33:54;;;;;;;2.20;2.20;;;25.70;99.90;;;;;;4897690;29;20481;-70
2023/09/07 10:36:23;;;;;;;2.60;2.40;;;25.80;99.90;;;;;;4888377;29;20992;-70
2023/09/07 10:38:52;;;;;;;2.80;2.63;;;25.90;99.90;;;;;;4878841;29;20970;-70
2023/09/07 10:41:19;;;;;;;3.00;2.90;;;25.90;99.90;;;;;;4885640;29;20525;-70
2023/09/07 10:43:50;;;;;;;2.20;2.20;;;25.90;99.90;;;;;;4896536;29;20474;-70
2023/09/07 10:46:20;;;;;;;2.80;2.70;;;26.00;99.90;;;;;;4888130;29;20466;-70
2023/09/07 10:48:49;;;;;;;2.50;2.50;;;26.00;99.90;;;;;;4896935;29;20539;-70
2023/09/07 10:51:18;;;;;;;2.57;2.43;;;26.10;99.90;;;;;;4888291;29;20505;-70
2023/09/07 10:53:44;;;;;;;2.97;2.87;;;26.10;99.90;;;;;;4882537;29;20491;-70
2023/09/07 10:56:11;;;;;;;3.07;2.97;;;26.10;99.90;;;;;;4897476;29;20466;-70
2023/09/07 10:58:40;;;;;;;2.70;2.60;;;26.20;99.90;;;;;;4896699;29;21010;-70
2023/09/07 11:01:08;;;;;;;2.57;2.47;;;26.20;99.90;;;;;;4896754;29;20515;-70
2023/09/07 11:03:36;;;;;;;2.70;2.60;;;26.20;99.90;;;;;;4893380;29;20475;-70
2023/09/07 11:06:09;;;;;;;3.30;3.10;;;26.10;99.90;;;;;;4878984;29;20891;-71
2023/09/07 11:08:37;;;;;;;2.70;2.63;;;26.10;99.90;;;;;;4878661;29;20555;-71
2023/09/07 11:11:05;;;;;;;2.37;2.37;;;26.20;99.90;;;;;;4882677;29;20551;-71
2023/09/07 11:13:32;;;;;;;2.50;2.30;;;26.30;99.90;;;;;;4897222;29;20495;-70
2023/09/07 11:15:59;;;;;;;2.93;2.83;;;26.30;99.90;;;;;;4896396;29;20948;-68
2023/09/07 11:18:27;;;;;;;2.43;2.43;;;26.30;99.90;;;;;;4892185;29;20845;-71
2023/09/07 11:20:54;;;;;;;2.53;2.43;;;26.30;99.90;;;;;;4896575;29;20499;-70
2023/09/07 11:23:22;;;;;;;2.80;2.50;;;26.40;99.90;;;;;;4896940;29;20471;-71
2023/09/07 11:25:51;;;;;;;2.37;2.37;;;26.50;99.90;;;;;;4894895;29;20507;-70
2023/09/07 11:28:19;;;;;;;3.03;2.80;;;26.60;99.90;;;;;;4889138;29;20464;-70
2023/09/07 11:30:53;;;;;;;2.77;2.67;;;26.60;99.90;;;;;;4894599;29;20491;-71
2023/09/07 11:33:21;;;;;;;2.53;2.43;;;26.60;99.90;;;;;;4897018;29;20502;-71
2023/09/07 11:35:47;;;;;;;1.90;1.80;;;26.80;99.90;;;;;;4896450;29;20483;-70
2023/09/07 11:38:15;;;;;;;2.30;2.20;;;26.90;99.90;;;;;;4895611;29;20998;-71
2023/09/07 11:40:44;;;;;;;2.50;2.40;;;26.80;99.90;;;;;;4892276;29;20858;-71
2023/09/07 11:43:13;;;;;;;2.63;2.60;;;26.80;99.90;;;;;;4896933;29;20495;-71
2023/09/07 11:45:40;;;;;;;2.07;1.97;;;26.80;99.90;;;;;;4886145;29;20559;-70
2023/09/07 11:48:08;;;;;;;2.50;2.50;;;26.90;99.90;;;;;;4878288;29;20464;-71
2023/09/07 11:50:36;;;;;;;2.30;2.20;;;26.90;99.90;;;;;;4896261;29;21060;-71
2023/09/07 11:53:03;;;;;;;2.10;2.00;;;27.00;99.90;;;;;;4896721;29;20459;-70
2023/09/07 11:55:29;;;;;;;2.70;2.60;;;27.00;99.90;;;;;;4896218;29;20467;-70
2023/09/07 11:57:56;;;;;;;2.30;2.30;;;27.00;99.90;;;;;;4896621;29;20492;-71
2023/09/07 12:00:25;;;;;;;2.40;2.40;;;27.00;99.90;;;;;;4894300;29;20494;-71
2023/09/07 12:02:52;;;;;;;2.60;2.50;;;27.00;99.90;;;;;;4889779;29;20490;-71
2023/09/07 12:05:19;;;;;;;2.80;2.70;;;27.00;99.90;;;;;;4895645;29;20475;-71
2023/09/07 12:07:46;;;;;;;2.90;2.80;;;27.00;99.90;;;;;;4888555;29;20463;-70
2023/09/07 12:10:13;;;;;;;2.60;2.60;;;27.10;99.90;;;;;;4898471;29;20813;-70
2023/09/07 12:12:41;;;;;;;2.60;2.50;;;27.00;99.90;;;;;;4896476;29;20515;-74
2023/09/07 12:15:08;;;;;;;2.57;2.47;;;27.00;99.90;;;;;;4896269;29;20784;-72
2023/09/07 12:17:36;;;;;;;2.10;2.10;;;27.00;99.90;;;;;;4894441;29;20513;-72
2023/09/07 12:20:05;;;;;;;2.97;2.77;;;27.00;99.90;;;;;;4893917;29;20480;-71
2023/09/07 12:22:34;;;;;;;2.93;2.83;;;27.30;99.90;;;;;;4887321;29;20485;-70
2023/09/07 12:25:00;;;;;;;2.80;2.80;;;27.30;99.90;;;;;;4895510;29;20495;-72
2023/09/07 12:27:27;;;;;;;2.10;2.10;;;27.30;99.90;;;;;;4895911;29;20470;-73
2023/09/07 12:29:55;;;;;;;2.60;2.50;;;27.30;99.90;;;;;;4895984;29;20535;-71
2023/09/07 12:32:21;;;;;;;2.80;2.70;;;27.40;99.90;;;;;;4897825;29;20510;-72
2023/09/07 12:34:53;;;;;;;2.60;2.50;;;27.40;99.90;;;;;;4897626;29;20470;-72
2023/09/07 12:37:23;;;;;;;2.30;2.20;;;27.30;99.90;;;;;;4889142;29;20854;-71
2023/09/07 12:39:49;;;;;;;2.33;2.30;;;27.30;99.90;;;;;;4877206;29;20559;-71
2023/09/07 12:42:17;;;;;;;2.27;2.27;;;27.30;99.90;;;;;;4877904;29;20481;-71
2023/09/07 12:44:44;;;;;;;3.27;1.90;;;27.30;99.90;;;;;;4883014;29;20459;-71
2023/09/07 12:47:11;;;;;;;3.00;2.23;;;27.30;99.90;;;;;;4895501;29;20549;-71
2023/09/07 12:49:37;;;;;;;2.50;2.40;;;27.40;99.90;;;;;;4893281;29;20474;-72
2023/09/07 12:52:08;;;;;;;2.30;2.20;;;27.40;99.90;;;;;;4877370;29;20488;-71
2023/09/07 12:54:35;;;;;;;2.00;2.00;;;27.50;99.90;;;;;;4877366;29;20471;-71
2023/09/07 12:57:02;;;;;;;2.43;2.40;;;27.50;99.90;;;;;;4882476;29;20494;-71
2023/09/07 12:59:29;;;;;;;2.40;2.33;;;27.50;99.90;;;;;;4894584;29;20490;-71
2023/09/07 13:01:56;;;;;;;1.57;1.57;;;27.50;99.90;;;;;;4898536;29;20978;-71
2023/09/07 13:04:23;;;;;;;2.03;1.93;;;27.60;99.90;;;;;;4887608;29;20476;-72
2023/09/07 13:06:49;;;;;;;1.90;1.90;;;27.60;99.90;;;;;;4880738;29;20482;-71
2023/09/07 13:09:18;;;;;;;1.63;1.63;;;27.70;99.90;;;;;;4895736;29;20570;-70
2023/09/07 13:11:44;;;;;;;2.03;1.93;;;27.70;99.90;;;;;;4895728;29;20990;-71
2023/09/07 13:14:12;;;;;;;2.43;2.43;;;27.60;99.90;;;;;;4895688;29;20464;-71
2023/09/07 13:16:38;;;;;;;2.23;2.13;;;27.70;99.90;;;;;;4895351;29;20478;-71
2023/09/07 13:19:06;;;;;;;2.03;1.80;;;27.70;99.90;;;;;;4889423;29;20492;-71
2023/09/07 13:21:33;;;;;;;2.13;2.00;;;27.70;99.90;;;;;;4893953;29;20534;-72
2023/09/07 13:23:59;;;;;;;2.03;1.93;;;27.70;99.90;;;;;;4887430;29;20944;-70
2023/09/07 13:26:27;;;;;;;2.10;2.10;;;27.70;99.90;;;;;;4880850;29;20464;-71
2023/09/07 13:28:54;;;;;;;2.63;2.53;;;27.70;99.90;;;;;;4880488;29;20470;-71
2023/09/07 13:31:21;;;;;;;2.00;1.90;;;27.70;99.90;;;;;;4895279;29;20483;-71
2023/09/07 13:33:47;;;;;;;1.90;1.90;;;27.70;99.90;;;;;;4898163;29;20476;-71
2023/09/07 13:36:14;;;;;;;3.03;2.93;;;27.70;99.90;;;;;;4885481;29;20800;-71
2023/09/07 13:38:41;;;;;;;1.70;1.60;;;27.70;99.90;;;;;;4880130;29;20504;-72
2023/09/07 13:41:08;;;;;;;1.63;1.60;;;27.70;99.90;;;;;;4880128;29;20548;-71
2023/09/07 13:43:36;;;;;;;1.57;1.57;;;27.70;99.90;;;;;;4890096;29;20483;-70
2023/09/07 13:46:02;;;;;;;2.00;1.90;;;27.70;99.90;;;;;;4898529;29;20467;-69
2023/09/07 13:48:30;;;;;;;2.13;1.93;;;27.80;99.90;;;;;;4896377;29;20467;-70
2023/09/07 13:50:56;;;;;;;1.97;1.90;;;27.90;99.90;;;;;;4897692;29;20491;-70
2023/09/07 13:53:23;;;;;;;1.87;1.87;;;27.90;99.90;;;;;;4898203;29;20474;-70
2023/09/07 13:55:50;;;;;;;2.10;2.10;;;27.90;99.90;;;;;;4898888;29;20995;-71
2023/09/07 13:58:16;;;;;;;2.53;2.43;;;27.90;99.90;;;;;;4897739;29;20494;-70
2023/09/07 14:00:46;;;;;;;2.43;2.33;;;27.90;99.90;;;;;;4891610;29;20504;-70
2023/09/07 14:03:13;;;;;;;2.07;1.97;;;27.90;99.90;;;;;;4900959;29;20479;-70
2023/09/07 14:05:40;;;;;;;1.90;1.90;;;27.90;99.90;;;;;;4898593;29;20467;-70
2023/09/07 14:08:07;;;;;;;1.90;1.80;;;27.90;99.90;;;;;;4899626;29;20463;-70
2023/09/07 14:10:33;;;;;;;2.40;2.30;;;28.00;99.90;;;;;;4897199;29;20523;-71
2023/09/07 14:13:00;;;;;;;1.60;1.60;;;28.10;99.90;;;;;;4897792;29;20471;-71
2023/09/07 14:15:27;;;;;;;1.97;1.97;;;28.10;99.90;;;;;;4898342;29;20472;-70
2023/09/07 14:17:55;;;;;;;2.40;2.30;;;28.00;99.90;;;;;;4897782;29;20480;-71
2023/09/07 14:20:22;;;;;;;2.37;2.30;;;28.00;99.90;;;;;;4897626;29;20472;-71
2023/09/07 14:22:48;;;;;;;2.13;2.03;;;28.00;99.90;;;;;;4896712;29;20551;-71
2023/09/07 14:25:16;;;;;;;2.03;2.03;;;28.00;99.90;;;;;;4898287;29;20815;-70
2023/09/07 14:27:43;;;;;;;1.93;1.93;;;28.00;99.90;;;;;;4897704;29;20985;-71
2023/09/07 14:30:11;;;;;;;2.07;2.07;;;28.00;99.90;;;;;;4897097;29;20480;-71
2023/09/07 14:32:37;;;;;;;2.43;2.33;;;28.00;99.90;;;;;;4895516;29;20479;-71
2023/09/07 14:35:06;;;;;;;2.40;2.30;;;28.00;99.90;;;;;;4896760;29;20467;-71
2023/09/07 14:37:33;;;;;;;2.33;2.23;;;28.00;99.90;;;;;;4897737;29;20487;-71
2023/09/07 14:40:00;;;;;;;1.80;1.80;;;28.10;99.90;;;;;;4897077;29;20479;-71
2023/09/07 14:42:26;;;;;;;2.20;2.20;;;28.10;99.90;;;;;;4897235;29;20494;-71
2023/09/07 14:44:54;;;;;;;1.83;1.83;;;28.00;99.90;;;;;;4897699;29;21250;-71
2023/09/07 14:47:24;;;;;;;2.10;1.93;;;28.00;99.90;;;;;;4897175;29;20467;-71
2023/09/07 14:49:51;;;;;;;1.80;1.80;;;27.90;99.90;;;;;;4896810;29;20471;-70
2023/09/07 14:52:20;;;;;;;2.00;2.00;;;27.90;99.90;;;;;;4896082;29;20495;-71
2023/09/07 14:54:48;;;;;;;2.47;2.03;;;27.80;99.90;;;;;;4897434;29;20839;-71
2023/09/07 14:57:15;;;;;;;1.87;1.87;;;27.80;99.90;;;;;;4897303;29;20499;-72
2023/09/07 14:59:42;;;;;;;2.00;2.00;;;27.90;99.90;;;;;;4897246;29;20467;-70
2023/09/07 15:02:09;;;;;;;1.80;1.73;;;27.90;99.90;;;;;;4895348;29;20584;-71
2023/09/07 15:04:36;;;;;;;2.20;2.10;;;27.90;99.90;;;;;;4897241;29;21005;-71
2023/09/07 15:07:02;;;;;;;2.67;2.57;;;27.90;99.90;;;;;;4896777;29;20474;-71
2023/09/07 15:09:30;;;;;;;2.33;2.27;;;27.90;99.90;;;;;;4896845;29;20959;-71
2023/09/07 15:11:58;;;;;;;1.80;1.80;;;27.90;99.90;;;;;;4894926;29;20495;-71
2023/09/07 15:14:24;;;;;;;2.07;2.07;;;27.90;99.90;;;;;;4896913;29;20471;-71
2023/09/07 15:16:51;;;;;;;2.13;2.10;;;27.80;99.90;;;;;;4897010;29;20471;-70
2023/09/07 15:19:18;;;;;;;1.87;1.87;;;27.70;99.90;;;;;;4896958;29;21295;-70
2023/09/07 15:21:44;;;;;;;2.50;2.30;;;27.70;99.90;;;;;;4895578;29;20491;-69
2023/09/07 15:24:11;;;;;;;1.70;1.70;;;27.70;99.90;;;;;;4897086;29;20479;-70
2023/09/07 15:26:45;;;;;;;1.80;1.80;;;27.70;99.90;;;;;;4895365;29;20845;-70
2023/09/07 15:29:12;;;;;;;2.00;1.90;;;27.70;99.90;;;;;;4890320;29;20467;-70
2023/09/07 15:31:39;;;;;;;1.60;1.50;;;27.70;99.90;;;;;;4896757;29;20533;-69
2023/09/07 15:34:06;;;;;;;1.80;1.80;;;27.70;99.90;;;;;;4896043;29;20471;-69
2023/09/07 15:36:33;;;;;;;2.00;1.90;;;27.70;99.90;;;;;;4896389;29;20614;-70
2023/09/07 15:39:00;;;;;;;2.57;2.53;;;27.80;99.90;;;;;;4896644;29;20495;-71
2023/09/07 15:41:26;;;;;;;1.90;1.80;;;27.70;99.90;;;;;;4896406;29;20507;-70
2023/09/07 15:43:55;;;;;;;1.93;1.93;;;27.70;99.90;;;;;;4895487;29;20476;-70
2023/09/07 15:46:22;;;;;;;2.23;2.13;;;27.70;99.90;;;;;;4887885;29;20844;-70
2023/09/07 15:48:49;;;;;;;2.30;2.10;;;27.70;99.90;;;;;;4892446;29;20467;-70
2023/09/07 15:51:16;;;;;;;2.07;1.97;;;27.70;99.90;;;;;;4886945;29;20971;-70
2023/09/07 15:53:42;;;;;;;1.90;1.90;;;27.70;99.90;;;;;;4899529;29;20468;-71
2023/09/07 15:56:09;;;;;;;1.60;1.60;;;27.70;99.90;;;;;;4894128;29;20495;-70
2023/09/07 15:58:36;;;;;;;1.70;1.60;;;27.60;99.90;;;;;;4904630;29;20570;-71
2023/09/07 16:01:05;;;;;;;2.27;2.27;;;27.60;99.90;;;;;;4904985;29;20491;-71
2023/09/07 16:03:32;;;;;;;1.90;1.90;;;27.50;99.90;;;;;;4899036;29;20501;-71
2023/09/07 16:05:58;;;;;;;2.10;2.10;;;27.50;99.90;;;;;;4897282;29;20467;-71
2023/09/07 16:08:26;;;;;;;2.20;2.10;;;27.50;99.90;;;;;;4906480;29;20819;-70
2023/09/07 16:10:55;;;;;;;2.23;2.20;;;27.50;99.90;;;;;;4901488;29;20493;-70
2023/09/07 16:13:22;;;;;;;1.80;1.70;;;27.50;99.90;;;;;;4898851;29;20470;-71
2023/09/07 16:15:48;;;;;;;2.00;1.93;;;27.50;99.90;;;;;;4898144;29;20459;-72
2023/09/07 16:18:16;;;;;;;1.90;1.90;;;27.50;99.90;;;;;;4897874;29;20484;-71
2023/09/07 16:20:44;;;;;;;1.80;1.80;;;27.40;99.90;;;;;;4893113;29;20503;-70
2023/09/07 16:23:10;;;;;;;1.70;1.70;;;27.40;99.90;;;;;;4891342;29;20835;-71
2023/09/07 16:25:37;;;;;;;1.97;1.97;;;27.40;99.90;;;;;;4899354;29;20471;-71
2023/09/07 16:28:05;;;;;;;2.30;2.20;;;27.30;99.90;;;;;;4899095;29;20489;-71
2023/09/07 16:30:31;;;;;;;1.30;1.30;;;27.30;99.90;;;;;;4903749;29;20491;-71
2023/09/07 16:32:58;;;;;;;2.20;2.17;;;27.20;99.90;;;;;;4897009;29;20463;-71
2023/09/07 16:35:26;;;;;;;2.03;1.93;;;27.20;99.90;;;;;;4898040;29;20474;-70
2023/09/07 16:37:53;;;;;;;2.10;2.00;;;27.20;99.90;;;;;;4895224;29;20475;-71
2023/09/07 16:40:20;;;;;;;1.67;1.67;;;27.20;99.90;;;;;;4894813;29;20542;-71
2023/09/07 16:42:47;;;;;;;2.00;1.90;;;27.10;99.90;;;;;;4902072;29;20475;-71
2023/09/07 16:45:13;;;;;;;1.90;1.90;;;27.00;99.90;;;;;;4896122;29;20467;-70
2023/09/07 16:47:41;;;;;;;1.90;1.90;;;26.90;99.90;;;;;;4894996;29;20470;-70
2023/09/07 16:50:09;;;;;;;2.37;2.37;;;26.90;99.90;;;;;;4895382;29;20471;-71